createdAt,value
2019-02-18T00:01:23.032Z,3.90
2019-02-18T00:03:49.917Z,3.90
2019-02-18T00:06:16.954Z,4.00
2019-02-18T00:08:43.898Z,4.00
2019-02-18T00:11:12.042Z,4.00
2019-02-18T00:13:38.884Z,4.00
2019-02-18T00:16:05.876Z,4.00
2019-02-18T00:18:32.886Z,4.10
2019-02-18T00:20:59.819Z,4.10
2019-02-18T00:23:26.900Z,4.10
2019-02-18T00:25:53.947Z,4.00
2019-02-18T00:28:20.867Z,4.00
2019-02-18T00:30:47.882Z,4.00
2019-02-18T00:33:14.840Z,4.00
2019-02-18T00:35:41.682Z,4.00
2019-02-18T00:38:08.646Z,4.00
2019-02-18T00:40:35.470Z,3.90
2019-02-18T00:43:02.498Z,3.50
2019-02-18T00:45:29.563Z,3.30
2019-02-18T00:47:56.384Z,3.20
2019-02-18T00:50:23.200Z,3.20
2019-02-18T00:52:50.063Z,3.40
2019-02-18T00:55:16.882Z,3.60
2019-02-18T00:57:43.690Z,3.80
2019-02-18T01:00:11.745Z,3.90
2019-02-18T01:02:38.674Z,4.00
2019-02-18T01:05:06.257Z,4.00
2019-02-18T01:07:35.200Z,4.10
2019-02-18T01:10:02.457Z,4.10
2019-02-18T01:12:29.465Z,4.20
2019-02-18T01:14:56.418Z,4.20
2019-02-18T01:17:23.354Z,4.20
2019-02-18T01:19:50.258Z,4.20
2019-02-18T01:22:17.098Z,4.20
2019-02-18T01:24:44.072Z,4.20
2019-02-18T01:27:11.401Z,4.30
2019-02-18T01:29:38.292Z,4.30
2019-02-18T01:32:05.125Z,4.30
2019-02-18T01:34:32.163Z,4.30
2019-02-18T01:36:59.015Z,4.30
2019-02-18T01:39:25.923Z,4.30
2019-02-18T01:41:52.942Z,4.40
2019-02-18T01:44:20.056Z,4.40
2019-02-18T01:46:46.853Z,4.40
2019-02-18T01:49:13.658Z,4.40
2019-02-18T01:51:40.670Z,4.50
2019-02-18T01:54:07.517Z,4.50
2019-02-18T01:56:34.565Z,4.50
2019-02-18T01:59:01.642Z,4.50
2019-02-18T02:01:28.573Z,4.50
2019-02-18T02:03:55.514Z,4.50
2019-02-18T02:06:22.710Z,4.50
2019-02-18T02:08:49.714Z,4.60
2019-02-18T02:11:16.524Z,4.70
2019-02-18T02:13:43.501Z,4.70
2019-02-18T02:16:11.328Z,4.70
2019-02-18T02:18:38.296Z,4.80
2019-02-18T02:21:05.457Z,4.80
2019-02-18T02:23:32.417Z,4.80
2019-02-18T02:25:59.351Z,4.80
2019-02-18T02:28:26.310Z,4.80
2019-02-18T02:30:53.240Z,4.80
2019-02-18T02:33:20.263Z,4.80
2019-02-18T02:35:47.313Z,4.80
2019-02-18T02:38:14.260Z,4.90
2019-02-18T02:40:41.291Z,4.90
2019-02-18T02:43:08.133Z,4.90
2019-02-18T02:45:35.094Z,4.90
2019-02-18T02:48:02.272Z,5.00
2019-02-18T02:50:29.151Z,4.90
2019-02-18T02:52:56.269Z,5.00
2019-02-18T02:55:23.299Z,4.90
2019-02-18T02:57:50.256Z,5.00
2019-02-18T03:00:17.294Z,5.00
2019-02-18T03:02:44.221Z,5.00
2019-02-18T03:05:11.276Z,5.00
2019-02-18T03:07:38.285Z,5.00
2019-02-18T03:10:05.390Z,5.00
2019-02-18T03:12:32.238Z,5.00
2019-02-18T03:14:59.072Z,5.00
2019-02-18T03:17:26.026Z,5.00
2019-02-18T03:19:52.863Z,5.00
2019-02-18T03:22:19.791Z,4.90
2019-02-18T03:25:15.436Z,4.90
2019-02-18T03:27:42.365Z,4.90
2019-02-18T03:30:38.051Z,4.90
2019-02-18T03:33:05.038Z,4.80
2019-02-18T03:35:31.945Z,4.80
2019-02-18T03:37:58.905Z,4.80
2019-02-18T03:40:25.939Z,4.70
2019-02-18T03:42:52.862Z,4.70
2019-02-18T03:45:19.926Z,4.70
2019-02-18T03:47:46.855Z,4.60
2019-02-18T03:50:13.762Z,4.60
2019-02-18T03:52:40.621Z,4.60
2019-02-18T03:55:07.903Z,4.60
2019-02-18T03:57:35.092Z,4.50
2019-02-18T04:00:02.433Z,4.40
2019-02-18T04:02:29.447Z,4.40
2019-02-18T04:04:56.488Z,4.40
2019-02-18T04:07:23.347Z,4.40
2019-02-18T04:09:50.263Z,4.30
2019-02-18T04:12:17.083Z,4.20
2019-02-18T04:14:44.062Z,4.20
2019-02-18T04:17:11.086Z,4.20
2019-02-18T04:19:37.914Z,4.20
2019-02-18T04:22:04.919Z,4.20
2019-02-18T04:24:31.837Z,4.10
2019-02-18T04:26:58.643Z,4.10
2019-02-18T04:29:25.526Z,4.20
2019-02-18T04:31:52.574Z,4.20
2019-02-18T04:34:19.449Z,4.10
2019-02-18T04:36:46.402Z,4.10
2019-02-18T04:39:13.213Z,4.10
2019-02-18T04:41:40.023Z,4.10
2019-02-18T04:44:06.862Z,4.00
2019-02-18T04:46:33.678Z,4.00
2019-02-18T04:49:00.604Z,4.00
2019-02-18T04:51:27.584Z,4.00
2019-02-18T04:53:54.615Z,4.00
2019-02-18T04:56:21.546Z,3.90
2019-02-18T04:58:48.479Z,3.90
2019-02-18T05:01:15.325Z,3.90
2019-02-18T05:03:42.245Z,4.00
2019-02-18T05:06:09.168Z,3.90
2019-02-18T05:08:35.999Z,3.90
2019-02-18T05:11:03.016Z,4.00
2019-02-18T05:13:30.056Z,4.00
2019-02-18T05:15:56.911Z,4.00
2019-02-18T05:18:23.850Z,4.00
2019-02-18T05:20:50.701Z,4.00
2019-02-18T05:23:17.535Z,4.00
2019-02-18T05:25:44.445Z,3.90
2019-02-18T05:28:11.284Z,3.90
2019-02-18T05:30:38.121Z,3.90
2019-02-18T05:33:05.066Z,3.80
2019-02-18T05:35:31.964Z,3.80
2019-02-18T05:37:58.890Z,3.70
2019-02-18T05:40:25.698Z,3.70
2019-02-18T05:42:52.561Z,3.70
2019-02-18T05:45:19.606Z,3.70
2019-02-18T05:47:46.510Z,3.70
2019-02-18T05:50:13.588Z,3.70
2019-02-18T05:52:40.424Z,3.70
2019-02-18T05:55:07.465Z,3.70
2019-02-18T05:57:34.535Z,3.80
2019-02-18T06:00:01.447Z,3.80
2019-02-18T06:02:28.365Z,3.70
2019-02-18T06:04:55.228Z,3.70
2019-02-18T06:07:22.143Z,3.60
2019-02-18T06:09:48.997Z,3.60
2019-02-18T06:12:16.010Z,3.60
2019-02-18T06:14:42.826Z,3.60
2019-02-18T06:17:09.855Z,3.60
2019-02-18T06:19:36.725Z,3.60
2019-02-18T06:22:03.737Z,3.50
2019-02-18T06:24:30.538Z,3.60
2019-02-18T06:26:57.382Z,3.60
2019-02-18T06:29:24.271Z,3.60
2019-02-18T06:31:51.164Z,3.60
2019-02-18T06:34:18.338Z,3.60
2019-02-18T06:36:45.435Z,3.60
2019-02-18T06:39:14.604Z,3.60
2019-02-18T06:41:41.465Z,3.60
2019-02-18T06:44:08.296Z,3.60
2019-02-18T06:46:50.498Z,3.60
2019-02-18T06:49:19.567Z,3.60
2019-02-18T06:51:46.489Z,3.60
2019-02-18T06:54:13.366Z,3.70
2019-02-18T06:56:58.408Z,3.60
2019-02-18T06:59:31.971Z,3.60
2019-02-18T07:02:04.749Z,3.70
2019-02-18T07:04:36.140Z,3.70
2019-02-18T07:07:21.766Z,3.70
2019-02-18T07:09:53.562Z,3.70
2019-02-18T07:12:31.865Z,3.60
2019-02-18T07:15:18.535Z,3.70
2019-02-18T07:17:45.391Z,3.70
2019-02-18T07:20:12.301Z,3.70
2019-02-18T07:22:39.170Z,3.70
2019-02-18T07:25:07.484Z,3.70
2019-02-18T07:27:34.455Z,3.70
2019-02-18T07:30:01.539Z,3.80
2019-02-18T07:32:28.378Z,3.80
2019-02-18T07:34:55.355Z,3.80
2019-02-18T07:37:22.529Z,3.80
2019-02-18T07:39:49.398Z,3.80
2019-02-18T07:42:16.317Z,3.90
2019-02-18T07:44:43.175Z,3.80
2019-02-18T07:47:10.267Z,3.90
2019-02-18T07:49:37.094Z,3.90
2019-02-18T07:52:04.250Z,3.90
2019-02-18T07:54:31.063Z,3.90
2019-02-18T07:56:58.084Z,4.00
2019-02-18T07:59:24.937Z,4.10
2019-02-18T08:01:51.884Z,4.00
2019-02-18T08:04:18.911Z,4.10
2019-02-18T08:06:45.983Z,4.10
2019-02-18T08:09:12.906Z,4.10
2019-02-18T08:11:39.848Z,4.10
2019-02-18T08:14:06.717Z,4.10
2019-02-18T08:16:33.630Z,4.20
2019-02-18T08:19:00.696Z,4.20
2019-02-18T08:21:27.575Z,4.20
2019-02-18T08:24:00.155Z,4.20
2019-02-18T08:26:23.775Z,4.30
2019-02-18T08:28:50.745Z,4.20
2019-02-18T08:31:17.689Z,4.20
2019-02-18T08:33:44.520Z,4.30
2019-02-18T08:36:11.591Z,4.40
2019-02-18T08:38:38.654Z,4.40
2019-02-18T08:41:05.815Z,4.50
2019-02-18T08:43:32.980Z,4.60
2019-02-18T08:45:59.811Z,4.70
2019-02-18T08:48:26.662Z,4.70
2019-02-18T08:50:53.619Z,4.70
2019-02-18T08:53:20.458Z,4.90
2019-02-18T08:55:47.297Z,4.90
2019-02-18T08:58:14.251Z,4.90
2019-02-18T09:00:41.175Z,5.00
2019-02-18T09:03:08.095Z,5.00
2019-02-18T09:05:35.057Z,5.10
2019-02-18T09:08:02.101Z,5.10
2019-02-18T09:10:33.615Z,5.20
2019-02-18T09:12:58.007Z,5.20
2019-02-18T09:15:25.145Z,5.30
2019-02-18T09:17:52.090Z,5.30
2019-02-18T09:20:19.115Z,5.40
2019-02-18T09:23:04.419Z,5.50
2019-02-18T09:25:51.748Z,5.60
2019-02-18T09:28:18.699Z,5.70
2019-02-18T09:30:49.373Z,5.80
2019-02-18T09:33:16.315Z,5.90
2019-02-18T09:35:43.346Z,6.10
2019-02-18T09:38:10.247Z,6.10
2019-02-18T09:40:44.270Z,6.20
2019-02-18T09:43:06.162Z,6.20
2019-02-18T09:45:33.180Z,6.20
2019-02-18T09:48:00.274Z,6.30
2019-02-18T09:50:27.376Z,6.30
2019-02-18T09:52:54.346Z,6.40
2019-02-18T09:55:21.324Z,6.40
2019-02-18T09:57:48.256Z,6.50
2019-02-18T10:00:15.291Z,6.50
2019-02-18T10:02:42.265Z,6.60
2019-02-18T10:05:09.220Z,6.60
2019-02-18T10:07:36.454Z,6.70
2019-02-18T10:10:04.739Z,6.70
2019-02-18T10:12:32.027Z,6.70
2019-02-18T10:14:58.949Z,6.80
2019-02-18T10:17:26.128Z,6.80
2019-02-18T10:19:53.182Z,6.90
2019-02-18T10:22:20.014Z,7.00
2019-02-18T10:24:50.407Z,7.00
2019-02-18T10:27:15.805Z,7.10
2019-02-18T10:29:42.723Z,7.20
2019-02-18T10:32:09.770Z,7.30
2019-02-18T10:34:36.591Z,7.30
2019-02-18T10:37:03.610Z,7.30
2019-02-18T10:39:30.477Z,7.30
2019-02-18T10:41:57.494Z,7.30
2019-02-18T10:44:37.306Z,7.30
2019-02-18T10:47:17.443Z,7.30
2019-02-18T10:49:44.308Z,7.30
2019-02-18T10:52:11.220Z,7.40
2019-02-18T10:54:38.237Z,7.40
2019-02-18T10:57:05.306Z,7.50
2019-02-18T10:59:32.310Z,7.50
2019-02-18T11:01:59.226Z,7.60
2019-02-18T11:04:26.477Z,7.60
2019-02-18T11:06:53.390Z,7.70
2019-02-18T11:09:20.446Z,7.80
2019-02-18T11:11:47.515Z,7.90
2019-02-18T11:14:14.441Z,8.00
2019-02-18T11:16:41.261Z,8.00
2019-02-18T11:19:08.262Z,8.00
2019-02-18T11:21:35.185Z,8.20
2019-02-18T11:24:02.206Z,8.20
2019-02-18T11:26:29.260Z,8.30
2019-02-18T11:28:56.281Z,8.40
2019-02-18T11:31:23.528Z,8.50
2019-02-18T11:33:50.370Z,8.50
2019-02-18T11:36:17.400Z,8.60
2019-02-18T11:38:44.316Z,8.60
2019-02-18T11:41:11.308Z,8.60
2019-02-18T11:43:38.214Z,8.60
2019-02-18T11:46:05.141Z,8.70
2019-02-18T11:48:32.378Z,8.80
2019-02-18T11:50:59.393Z,9.00
2019-02-18T11:53:26.310Z,9.00
2019-02-18T11:55:53.259Z,9.00
2019-02-18T11:58:20.276Z,9.00
2019-02-18T12:00:47.180Z,9.00
2019-02-18T12:03:14.112Z,9.00
2019-02-18T12:05:41.637Z,9.00
2019-02-18T12:08:08.640Z,9.10
2019-02-18T12:10:35.591Z,9.10
2019-02-18T12:13:02.725Z,9.10
2019-02-18T12:15:29.648Z,9.20
2019-02-18T12:17:56.627Z,9.20
2019-02-18T12:20:23.548Z,9.30
2019-02-18T12:22:50.421Z,9.30
2019-02-18T12:25:17.384Z,9.40
2019-02-18T12:27:44.286Z,9.40
2019-02-18T12:30:11.732Z,9.40
2019-02-18T12:32:38.897Z,9.50
2019-02-18T12:35:06.162Z,9.50
2019-02-18T12:37:33.174Z,9.70
2019-02-18T12:40:00.025Z,9.70
2019-02-18T12:42:26.843Z,9.80
2019-02-18T12:44:54.153Z,9.90
2019-02-18T12:47:21.222Z,10.00
2019-02-18T12:49:48.097Z,10.10
2019-02-18T12:52:15.025Z,10.10
2019-02-18T12:54:42.009Z,10.10
2019-02-18T12:57:08.920Z,10.10
2019-02-18T12:59:36.002Z,10.10
2019-02-18T13:02:03.193Z,10.20
2019-02-18T13:04:32.043Z,10.30
2019-02-18T13:06:59.082Z,10.40
2019-02-18T13:09:26.068Z,10.40
2019-02-18T13:11:58.936Z,10.40
2019-02-18T13:14:22.052Z,10.60
2019-02-18T13:16:49.158Z,10.70
2019-02-18T13:19:16.077Z,10.80
2019-02-18T13:21:43.000Z,10.70
2019-02-18T13:24:10.156Z,10.80
2019-02-18T13:26:37.583Z,10.80
2019-02-18T13:29:04.676Z,10.70
2019-02-18T13:31:31.680Z,10.80
2019-02-18T13:33:58.641Z,10.80
2019-02-18T13:36:25.659Z,10.80
2019-02-18T13:38:52.735Z,10.80
2019-02-18T13:41:19.753Z,10.70
2019-02-18T13:43:46.686Z,10.80
2019-02-18T13:46:13.732Z,10.80
2019-02-18T13:48:40.761Z,10.80
2019-02-18T13:51:07.790Z,10.80
2019-02-18T13:53:34.768Z,10.90
2019-02-18T13:56:01.876Z,10.90
2019-02-18T13:58:28.875Z,10.90
2019-02-18T14:00:55.849Z,10.90
2019-02-18T14:03:23.191Z,10.70
2019-02-18T14:05:50.197Z,10.50
2019-02-18T14:08:17.121Z,10.50
2019-02-18T14:10:44.117Z,10.60
2019-02-18T14:13:11.155Z,10.50
2019-02-18T14:15:38.097Z,10.40
2019-02-18T14:18:05.222Z,10.40
2019-02-18T14:20:32.229Z,10.40
2019-02-18T14:22:59.306Z,10.30
2019-02-18T14:25:26.231Z,10.20
2019-02-18T14:27:53.167Z,10.20
2019-02-18T14:30:20.603Z,10.30
2019-02-18T14:32:47.653Z,10.10
2019-02-18T14:35:15.831Z,9.90
2019-02-18T14:37:42.795Z,9.90
2019-02-18T14:40:12.556Z,9.80
2019-02-18T14:42:39.595Z,9.60
2019-02-18T14:45:06.614Z,9.60
2019-02-18T14:47:33.662Z,9.60
2019-02-18T14:50:00.676Z,9.60
2019-02-18T14:52:27.748Z,9.50
2019-02-18T14:54:54.670Z,9.30
2019-02-18T14:57:22.803Z,9.20
2019-02-18T14:59:49.895Z,9.10
2019-02-18T15:02:17.152Z,9.10
2019-02-18T15:04:44.478Z,9.00
2019-02-18T15:07:11.459Z,8.90
2019-02-18T15:09:38.390Z,8.90
2019-02-18T15:12:06.113Z,8.80
2019-02-18T15:14:33.362Z,8.70
2019-02-18T15:17:00.194Z,8.70
2019-02-18T15:19:27.129Z,8.60
2019-02-18T15:21:54.008Z,8.60
2019-02-18T15:24:21.013Z,8.50
2019-02-18T15:26:47.930Z,8.50
2019-02-18T15:29:15.072Z,8.40
2019-02-18T15:31:41.925Z,8.30
2019-02-18T15:34:09.167Z,8.30
2019-02-18T15:36:36.129Z,8.20
2019-02-18T15:39:04.987Z,8.10
2019-02-18T15:41:32.159Z,8.10
2019-02-18T15:43:59.113Z,8.00
2019-02-18T15:46:26.230Z,7.90
2019-02-18T15:48:53.348Z,7.80
2019-02-18T15:51:20.836Z,7.80
2019-02-18T15:53:47.743Z,7.70
2019-02-18T15:56:15.017Z,7.60
2019-02-18T15:58:42.210Z,7.50
2019-02-18T16:01:09.350Z,7.50
2019-02-18T16:03:36.251Z,7.40
2019-02-18T16:06:03.522Z,7.40
2019-02-18T16:08:31.066Z,7.30
2019-02-18T16:10:58.086Z,7.20
2019-02-18T16:13:25.034Z,7.10
2019-02-18T16:15:52.077Z,7.00
2019-02-18T16:18:19.005Z,6.90
2019-02-18T16:20:46.086Z,6.90
2019-02-18T16:23:12.975Z,6.70
2019-02-18T16:25:39.878Z,6.60
2019-02-18T16:28:07.137Z,6.50
2019-02-18T16:30:34.166Z,6.50
2019-02-18T16:33:01.169Z,6.50
2019-02-18T16:35:28.635Z,6.50
2019-02-18T16:37:56.236Z,6.40
2019-02-18T16:40:23.695Z,6.30
2019-02-18T16:42:58.909Z,6.30
2019-02-18T16:45:20.388Z,6.20
2019-02-18T16:47:47.422Z,6.20
2019-02-18T16:50:14.531Z,6.10
2019-02-18T16:52:41.582Z,6.10
2019-02-18T16:55:09.759Z,6.00
2019-02-18T16:57:38.181Z,6.00
2019-02-18T17:00:13.738Z,5.90
2019-02-18T17:02:40.706Z,5.80
2019-02-18T17:05:07.941Z,5.80
2019-02-18T17:07:34.877Z,5.80
2019-02-18T17:10:04.517Z,5.80
2019-02-18T17:12:31.532Z,5.80
2019-02-18T17:14:58.709Z,5.80
2019-02-18T17:17:26.111Z,5.80
2019-02-18T17:19:53.143Z,5.80
2019-02-18T17:22:20.120Z,5.80
2019-02-18T17:24:47.478Z,5.80
2019-02-18T17:27:14.418Z,5.70
2019-02-18T17:29:41.231Z,5.70
2019-02-18T17:32:08.206Z,5.70
2019-02-18T17:34:35.650Z,5.60
2019-02-18T17:37:02.615Z,5.60
2019-02-18T17:39:29.812Z,5.60
2019-02-18T17:41:56.753Z,5.60
2019-02-18T17:44:23.790Z,5.60
2019-02-18T17:46:50.714Z,5.50
2019-02-18T17:49:17.554Z,5.50
2019-02-18T17:51:44.710Z,5.50
2019-02-18T17:54:12.196Z,5.40
2019-02-18T17:56:39.024Z,5.30
2019-02-18T17:59:05.957Z,5.30
2019-02-18T18:01:32.940Z,5.30
2019-02-18T18:03:59.877Z,5.20
2019-02-18T18:06:26.916Z,5.20
2019-02-18T18:08:54.080Z,5.20
2019-02-18T18:11:21.194Z,5.10
2019-02-18T18:13:48.338Z,5.10
2019-02-18T18:16:15.528Z,5.10
2019-02-18T18:18:42.455Z,5.00
2019-02-18T18:21:09.369Z,5.00
2019-02-18T18:23:36.349Z,5.00
2019-02-18T18:26:03.279Z,4.90
2019-02-18T18:28:30.297Z,4.90
2019-02-18T18:30:57.548Z,4.90
2019-02-18T18:33:24.708Z,4.90
2019-02-18T18:35:51.842Z,4.90
2019-02-18T18:38:18.800Z,4.90
2019-02-18T18:40:45.834Z,4.90
2019-02-18T18:43:12.736Z,4.90
2019-02-18T18:45:39.986Z,4.90
2019-02-18T18:48:07.424Z,4.90
2019-02-18T18:50:34.573Z,4.90
2019-02-18T18:53:01.774Z,4.80
2019-02-18T18:55:28.771Z,4.80
2019-02-18T18:57:55.790Z,4.80
2019-02-18T19:00:24.465Z,4.70
2019-02-18T19:02:51.610Z,4.70
2019-02-18T19:05:19.163Z,4.70
2019-02-18T19:07:46.017Z,4.70
2019-02-18T19:10:13.036Z,4.60
2019-02-18T19:12:40.046Z,4.60
2019-02-18T19:15:07.714Z,4.60
2019-02-18T19:17:34.672Z,4.60
2019-02-18T19:20:01.584Z,4.60
2019-02-18T19:22:30.267Z,4.60
2019-02-18T19:24:57.218Z,4.60
2019-02-18T19:27:24.142Z,4.50
2019-02-18T19:29:51.093Z,4.50
2019-02-18T19:32:18.142Z,4.50
2019-02-18T19:34:45.045Z,4.40
2019-02-18T19:37:12.012Z,4.40
2019-02-18T19:39:39.346Z,4.40
2019-02-18T19:42:06.262Z,4.40
2019-02-18T19:44:33.120Z,4.40
2019-02-18T19:47:00.134Z,4.40
2019-02-18T19:49:27.064Z,4.40
2019-02-18T19:51:53.897Z,4.40
2019-02-18T19:54:20.715Z,4.40
2019-02-18T19:56:48.142Z,4.50
2019-02-18T19:59:15.111Z,4.50
2019-02-18T20:01:41.939Z,4.50
2019-02-18T20:04:08.818Z,4.50
2019-02-18T20:06:35.787Z,4.40
2019-02-18T20:09:05.891Z,4.40
2019-02-18T20:11:32.795Z,4.40
2019-02-18T20:14:00.077Z,4.40
2019-02-18T20:16:26.915Z,4.40
2019-02-18T20:18:53.858Z,4.30
2019-02-18T20:21:20.966Z,4.30
2019-02-18T20:23:47.868Z,4.30
2019-02-18T20:26:14.796Z,4.30
2019-02-18T20:28:41.858Z,4.40
2019-02-18T20:31:09.302Z,4.40
2019-02-18T20:33:36.263Z,4.40
2019-02-18T20:36:03.293Z,4.40
2019-02-18T20:38:30.210Z,4.30
2019-02-18T20:40:57.230Z,4.30
2019-02-18T20:43:24.170Z,4.30
2019-02-18T20:45:51.011Z,4.40
2019-02-18T20:48:17.850Z,4.40
2019-02-18T20:50:44.785Z,4.40
2019-02-18T20:53:11.781Z,4.40
2019-02-18T20:55:38.708Z,4.40
2019-02-18T20:58:05.761Z,4.40
2019-02-18T21:00:32.779Z,4.50
2019-02-18T21:02:59.594Z,4.60
2019-02-18T21:05:26.458Z,4.60
2019-02-18T21:07:53.686Z,4.60
2019-02-18T21:10:20.725Z,4.70
2019-02-18T21:12:47.769Z,4.60
2019-02-18T21:15:14.887Z,4.40
2019-02-18T21:17:41.918Z,4.30
2019-02-18T21:20:09.042Z,4.30
2019-02-18T21:22:36.045Z,4.30
2019-02-18T21:25:03.698Z,4.30
2019-02-18T21:27:30.540Z,4.30
2019-02-18T21:29:57.334Z,4.30
2019-02-18T21:32:24.122Z,4.30
2019-02-18T21:34:50.979Z,4.30
2019-02-18T21:37:17.886Z,4.40
2019-02-18T21:40:04.451Z,4.40
2019-02-18T21:42:31.410Z,4.50
2019-02-18T21:44:58.206Z,4.50
2019-02-18T21:47:25.158Z,4.50
2019-02-18T21:49:52.077Z,4.50
2019-02-18T21:52:18.995Z,4.60
2019-02-18T21:54:45.926Z,4.80
2019-02-18T21:57:13.154Z,4.90
2019-02-18T21:59:40.552Z,4.90
2019-02-18T22:02:07.482Z,4.90
2019-02-18T22:04:34.297Z,4.80
2019-02-18T22:07:01.161Z,4.80
2019-02-18T22:09:28.165Z,4.70
2019-02-18T22:11:54.974Z,4.70
2019-02-18T22:14:21.797Z,4.70
2019-02-18T22:16:49.144Z,4.70
2019-02-18T22:19:15.946Z,4.80
2019-02-18T22:21:42.762Z,4.80
2019-02-18T22:24:09.715Z,4.80
2019-02-18T22:26:36.535Z,4.70
2019-02-18T22:29:03.452Z,4.70
2019-02-18T22:31:30.403Z,4.70
2019-02-18T22:33:57.227Z,4.70
2019-02-18T22:36:24.342Z,4.70
2019-02-18T22:38:51.183Z,4.70
2019-02-18T22:41:18.087Z,4.70
2019-02-18T22:43:45.001Z,4.70
2019-02-18T22:46:12.117Z,4.70
2019-02-18T22:48:39.023Z,4.70
2019-02-18T22:51:05.981Z,4.60
2019-02-18T22:53:33.056Z,4.60
2019-02-18T22:56:00.165Z,4.70
2019-02-18T22:58:27.191Z,4.70
2019-02-18T23:00:57.840Z,4.70
2019-02-18T23:03:24.928Z,4.70
2019-02-18T23:05:52.042Z,4.70
2019-02-18T23:08:19.006Z,4.70
2019-02-18T23:10:45.914Z,4.70
2019-02-18T23:13:12.738Z,4.80
2019-02-18T23:15:39.688Z,4.70
2019-02-18T23:18:06.605Z,4.70
2019-02-18T23:20:33.616Z,4.70
2019-02-18T23:23:00.585Z,4.70
2019-02-18T23:25:27.495Z,4.70
2019-02-18T23:27:54.420Z,4.60
2019-02-18T23:30:21.396Z,4.60
2019-02-18T23:32:48.409Z,4.50
2019-02-18T23:35:15.418Z,4.40
2019-02-18T23:37:42.353Z,4.40
2019-02-18T23:40:09.290Z,4.30
2019-02-18T23:42:36.461Z,4.30
2019-02-18T23:45:03.554Z,4.30
2019-02-18T23:47:30.390Z,4.30
2019-02-18T23:49:57.201Z,4.40
2019-02-18T23:52:24.191Z,4.40
2019-02-18T23:54:51.112Z,4.50
2019-02-18T23:57:18.135Z,4.60
2019-02-18T23:59:45.194Z,4.70
